Time;durP1;ratioP1;P1;durP2;ratioP2;P2;SDS_P1;SDS_P2;PMS_P1;PMS_P2;Temp;Humidity;BMP_temperature;BMP_pressure;BME280_temperature;BME280_humidity;BME280_pressure;Samples;Min_cycle;Max_cycle;Signal;HPM_P1;HPM_P2
2021/08/14 00:00:13;;;;;;;8.87;7.77;;;;;;;;;;5062543;28;20211;-69
2021/08/14 00:02:39;;;;;;;12.00;8.23;;;;;;;;;;5051065;28;20192;-71
2021/08/14 00:05:07;;;;;;;10.47;7.83;;;;;;;;;;5050281;28;20195;-70
2021/08/14 00:07:33;;;;;;;9.87;7.90;;;;;;;;;;5049802;28;20204;-69
2021/08/14 00:10:00;;;;;;;8.43;7.37;;;;;;;;;;5055271;28;20191;-69
2021/08/14 00:12:27;;;;;;;9.70;7.30;;;;;;;;;;5069527;28;20551;-72
2021/08/14 00:14:54;;;;;;;9.83;7.37;;;;;;;;;;5053639;28;20205;-69
2021/08/14 00:17:20;;;;;;;12.60;7.90;;;;;;;;;;5059669;28;20187;-70
2021/08/14 00:19:47;;;;;;;9.57;7.47;;;;;;;;;;5055314;28;20201;-70
2021/08/14 00:22:14;;;;;;;11.77;7.60;;;;;;;;;;5057183;28;20203;-70
2021/08/14 00:24:41;;;;;;;11.43;7.77;;;;;;;;;;5070265;28;20203;-71
2021/08/14 00:27:08;;;;;;;9.30;7.53;;;;;;;;;;5055930;28;20674;-71
2021/08/14 00:29:34;;;;;;;10.37;8.20;;;;;;;;;;5070258;28;20190;-72
2021/08/14 00:32:01;;;;;;;11.37;7.80;;;;;;;;;;5066100;28;20245;-71
2021/08/14 00:34:28;;;;;;;12.00;8.47;;;;;;;;;;5050492;28;20188;-73
2021/08/14 00:36:55;;;;;;;12.07;7.53;;;;;;;;;;5063838;28;20187;-72
2021/08/14 00:39:22;;;;;;;10.73;7.50;;;;;;;;;;5058357;28;20187;-71
2021/08/14 00:41:50;;;;;;;9.03;8.00;;;;;;;;;;5055285;28;20204;-73
2021/08/14 00:44:18;;;;;;;12.27;8.03;;;;;;;;;;5070201;28;20199;-70
2021/08/14 00:46:45;;;;;;;11.60;7.23;;;;;;;;;;5069603;28;20188;-68
2021/08/14 00:49:13;;;;;;;12.17;8.13;;;;;;;;;;5054665;28;20196;-69
2021/08/14 00:51:41;;;;;;;10.37;7.80;;;;;;;;;;5049434;28;20690;-69
2021/08/14 00:54:09;;;;;;;9.10;7.63;;;;;;;;;;5049596;28;20550;-70
2021/08/14 00:56:36;;;;;;;7.97;7.20;;;;;;;;;;5049312;28;20200;-71
2021/08/14 00:59:04;;;;;;;8.23;7.43;;;;;;;;;;5049889;28;20268;-69
2021/08/14 01:01:30;;;;;;;8.63;7.67;;;;;;;;;;5048916;28;20188;-70
2021/08/14 01:03:57;;;;;;;10.50;7.50;;;;;;;;;;5049973;28;20202;-70
2021/08/14 01:06:24;;;;;;;9.17;7.50;;;;;;;;;;5051542;28;20208;-69
2021/08/14 01:08:52;;;;;;;8.57;7.23;;;;;;;;;;5060872;28;20208;-69
2021/08/14 01:11:19;;;;;;;7.93;7.00;;;;;;;;;;5063395;28;20191;-70
2021/08/14 01:13:46;;;;;;;7.57;6.50;;;;;;;;;;5049578;28;20195;-71
2021/08/14 01:16:13;;;;;;;7.57;6.87;;;;;;;;;;5049713;28;20184;-70
2021/08/14 01:18:40;;;;;;;10.77;7.57;;;;;;;;;;5069036;28;20635;-69
2021/08/14 01:21:16;;;;;;;9.40;7.00;;;;;;;;;;5069366;28;20192;-68
2021/08/14 01:23:43;;;;;;;8.57;6.73;;;;;;;;;;5051191;28;20204;-68
2021/08/14 01:26:11;;;;;;;10.60;6.93;;;;;;;;;;5053716;28;20192;-70
2021/08/14 01:28:38;;;;;;;8.37;6.70;;;;;;;;;;5056978;28;20195;-69
2021/08/14 01:31:23;;;;;;;7.53;6.73;;;;;;;;;;5073478;28;20206;-70
2021/08/14 01:33:50;;;;;;;9.70;7.10;;;;;;;;;;5055296;28;20230;-68
2021/08/14 01:36:17;;;;;;;8.17;6.77;;;;;;;;;;5064191;28;20669;-71
2021/08/14 01:38:45;;;;;;;9.47;7.53;;;;;;;;;;5059034;28;20192;-69
2021/08/14 01:41:13;;;;;;;9.73;7.27;;;;;;;;;;5064233;28;20203;-70
2021/08/14 01:43:52;;;;;;;9.70;6.87;;;;;;;;;;5054252;28;20643;-69
2021/08/14 01:46:19;;;;;;;10.37;7.20;;;;;;;;;;5064034;28;20206;-70
2021/08/14 01:48:46;;;;;;;10.03;6.63;;;;;;;;;;5057504;28;20192;-70
2021/08/14 01:51:15;;;;;;;10.33;6.87;;;;;;;;;;5056784;28;20204;-69
2021/08/14 01:53:46;;;;;;;9.07;7.23;;;;;;;;;;5062733;28;20224;-70
2021/08/14 01:56:13;;;;;;;9.87;6.57;;;;;;;;;;5066480;28;20192;-69
2021/08/14 01:58:40;;;;;;;7.30;5.90;;;;;;;;;;5062069;28;20221;-70
2021/08/14 02:01:07;;;;;;;7.73;6.70;;;;;;;;;;5058608;28;20662;-71
2021/08/14 02:03:35;;;;;;;7.20;6.40;;;;;;;;;;5073215;28;20648;-69
2021/08/14 02:06:02;;;;;;;7.43;6.73;;;;;;;;;;5072310;28;20662;-69
2021/08/14 02:08:29;;;;;;;8.77;6.73;;;;;;;;;;5052939;28;20207;-70
2021/08/14 02:10:56;;;;;;;9.90;6.93;;;;;;;;;;5053386;28;20193;-70
2021/08/14 02:13:23;;;;;;;10.13;8.03;;;;;;;;;;5052753;28;20224;-70
2021/08/14 02:15:49;;;;;;;8.20;7.40;;;;;;;;;;5052448;28;20192;-70
2021/08/14 02:18:16;;;;;;;9.33;7.23;;;;;;;;;;5052444;28;20292;-71
2021/08/14 02:20:43;;;;;;;8.67;7.17;;;;;;;;;;5052174;28;20610;-71
2021/08/14 02:23:14;;;;;;;7.47;6.53;;;;;;;;;;5053587;28;20569;-71
2021/08/14 02:25:40;;;;;;;8.33;7.53;;;;;;;;;;5072552;28;20188;-71
2021/08/14 02:28:07;;;;;;;10.23;7.00;;;;;;;;;;5073317;28;20195;-72
2021/08/14 02:30:34;;;;;;;8.67;7.37;;;;;;;;;;5058156;28;20203;-70
2021/08/14 02:33:00;;;;;;;8.07;7.03;;;;;;;;;;5072450;28;20222;-71
2021/08/14 02:35:27;;;;;;;10.97;6.90;;;;;;;;;;5057014;28;20191;-71
2021/08/14 02:37:54;;;;;;;8.63;7.13;;;;;;;;;;5062882;28;20208;-70
2021/08/14 02:40:21;;;;;;;8.13;7.30;;;;;;;;;;5051580;28;20204;-72
2021/08/14 02:42:48;;;;;;;11.00;6.90;;;;;;;;;;5060532;28;20238;-71
2021/08/14 02:45:15;;;;;;;10.17;6.93;;;;;;;;;;5057017;28;20577;-70
2021/08/14 02:47:42;;;;;;;7.77;6.97;;;;;;;;;;5059062;28;20195;-69
2021/08/14 02:50:09;;;;;;;8.57;7.67;;;;;;;;;;5063171;28;20209;-70
2021/08/14 02:52:36;;;;;;;8.83;7.03;;;;;;;;;;5051809;28;20776;-69
2021/08/14 02:55:03;;;;;;;8.37;7.53;;;;;;;;;;5051521;28;20693;-69
2021/08/14 02:57:29;;;;;;;11.50;7.73;;;;;;;;;;5065236;28;20195;-69
2021/08/14 02:59:56;;;;;;;9.30;7.20;;;;;;;;;;5057323;28;20271;-69
2021/08/14 03:02:23;;;;;;;12.83;7.53;;;;;;;;;;5072081;28;20196;-69
2021/08/14 03:04:50;;;;;;;9.10;7.20;;;;;;;;;;5054172;28;20655;-70
2021/08/14 03:07:16;;;;;;;10.70;6.77;;;;;;;;;;5051889;28;20269;-70
2021/08/14 03:09:43;;;;;;;12.93;6.60;;;;;;;;;;5051734;28;20204;-70
2021/08/14 03:12:10;;;;;;;7.67;6.53;;;;;;;;;;5051428;28;20315;-69
2021/08/14 03:14:38;;;;;;;7.63;6.60;;;;;;;;;;5065557;28;20211;-71
2021/08/14 03:17:05;;;;;;;9.33;6.23;;;;;;;;;;5057883;28;20283;-71
2021/08/14 03:19:32;;;;;;;7.97;6.97;;;;;;;;;;5058795;28;20690;-69
2021/08/14 03:21:59;;;;;;;7.30;6.27;;;;;;;;;;5056096;28;20280;-70
2021/08/14 03:24:26;;;;;;;10.50;6.70;;;;;;;;;;5071839;28;20282;-69
2021/08/14 03:26:52;;;;;;;8.40;6.73;;;;;;;;;;5057086;28;20225;-71
2021/08/14 03:29:19;;;;;;;7.70;6.90;;;;;;;;;;5071166;28;20630;-70
2021/08/14 03:31:46;;;;;;;10.77;6.73;;;;;;;;;;5055612;28;20299;-71
2021/08/14 03:34:13;;;;;;;8.13;6.27;;;;;;;;;;5058792;28;20218;-70
2021/08/14 03:36:39;;;;;;;9.03;6.80;;;;;;;;;;5071015;28;20199;-71
2021/08/14 03:39:06;;;;;;;9.50;7.00;;;;;;;;;;5056447;28;20192;-70
2021/08/14 03:41:34;;;;;;;10.40;7.07;;;;;;;;;;5059039;28;20216;-70
2021/08/14 03:44:02;;;;;;;12.60;7.33;;;;;;;;;;5051189;28;20207;-70
2021/08/14 03:46:29;;;;;;;8.73;6.70;;;;;;;;;;5050692;28;20651;-70
2021/08/14 03:48:55;;;;;;;10.00;6.90;;;;;;;;;;5051396;28;20235;-70
2021/08/14 03:51:22;;;;;;;10.20;6.17;;;;;;;;;;5069778;28;20580;-70
2021/08/14 03:53:49;;;;;;;7.90;6.60;;;;;;;;;;5059930;28;20232;-70
2021/08/14 03:56:17;;;;;;;7.13;6.43;;;;;;;;;;5064412;28;20287;-70
2021/08/14 03:58:44;;;;;;;8.60;7.17;;;;;;;;;;5050833;28;20234;-69
2021/08/14 04:01:11;;;;;;;9.90;6.97;;;;;;;;;;5064721;28;20196;-70
2021/08/14 04:03:38;;;;;;;10.60;7.30;;;;;;;;;;5050801;28;20656;-70
2021/08/14 04:06:05;;;;;;;7.43;6.63;;;;;;;;;;5050513;28;20580;-69
2021/08/14 04:08:31;;;;;;;8.00;6.40;;;;;;;;;;5056177;28;20220;-69
2021/08/14 04:10:58;;;;;;;9.07;6.30;;;;;;;;;;5070244;28;20201;-72
2021/08/14 04:13:25;;;;;;;9.37;6.60;;;;;;;;;;5053446;28;20641;-79
2021/08/14 04:15:52;;;;;;;9.10;6.40;;;;;;;;;;5061359;28;20586;-78
2021/08/14 04:18:19;;;;;;;8.33;6.10;;;;;;;;;;5059684;28;20237;-72
2021/08/14 04:20:45;;;;;;;8.87;6.37;;;;;;;;;;5050155;28;20184;-73
2021/08/14 04:23:12;;;;;;;9.53;6.23;;;;;;;;;;5051804;28;20226;-75
2021/08/14 04:25:39;;;;;;;9.37;6.47;;;;;;;;;;5053310;28;20717;-73
2021/08/14 04:28:06;;;;;;;9.23;6.87;;;;;;;;;;5056923;28;20193;-74
2021/08/14 04:30:32;;;;;;;8.03;6.10;;;;;;;;;;5050150;28;20195;-78
2021/08/14 04:32:59;;;;;;;11.80;7.00;;;;;;;;;;5050341;28;20698;-74
2021/08/14 04:35:26;;;;;;;8.60;6.77;;;;;;;;;;5052270;28;20188;-74
2021/08/14 04:37:53;;;;;;;11.97;6.50;;;;;;;;;;5054862;28;20187;-77
2021/08/14 04:40:21;;;;;;;9.73;6.80;;;;;;;;;;5054704;28;20214;-73
2021/08/14 04:42:47;;;;;;;9.97;7.27;;;;;;;;;;5056708;28;20236;-75
2021/08/14 04:45:15;;;;;;;12.03;7.17;;;;;;;;;;5050080;28;20231;-75
2021/08/14 04:47:42;;;;;;;11.47;5.93;;;;;;;;;;5054314;28;20203;-72
2021/08/14 04:50:09;;;;;;;9.47;6.77;;;;;;;;;;5056709;28;20200;-79
2021/08/14 04:52:36;;;;;;;14.73;7.53;;;;;;;;;;5059520;28;20220;-77
2021/08/14 04:55:03;;;;;;;8.07;7.20;;;;;;;;;;5050564;28;20300;-74
2021/08/14 04:57:29;;;;;;;9.97;7.30;;;;;;;;;;5054744;28;20196;-76
2021/08/14 04:59:56;;;;;;;9.40;6.73;;;;;;;;;;5048327;28;20207;-74
2021/08/14 05:02:23;;;;;;;8.93;6.43;;;;;;;;;;5056204;28;20184;-69
2021/08/14 05:04:50;;;;;;;10.60;6.50;;;;;;;;;;5050057;28;20726;-75
2021/08/14 05:07:17;;;;;;;9.10;6.70;;;;;;;;;;5049089;28;20199;-78
2021/08/14 05:09:44;;;;;;;11.07;7.00;;;;;;;;;;5051415;28;20249;-73
2021/08/14 05:12:14;;;;;;;10.67;7.00;;;;;;;;;;5048573;28;20255;-77
2021/08/14 05:14:41;;;;;;;13.50;8.13;;;;;;;;;;5054716;28;20204;-78
2021/08/14 05:17:08;;;;;;;9.83;6.90;;;;;;;;;;5056415;28;20192;-72
2021/08/14 05:19:35;;;;;;;14.27;7.10;;;;;;;;;;5058988;28;20261;-72
2021/08/14 05:22:01;;;;;;;10.77;6.77;;;;;;;;;;5051518;28;20188;-71
2021/08/14 05:24:28;;;;;;;10.23;6.87;;;;;;;;;;5051492;28;20581;-76
2021/08/14 05:26:55;;;;;;;8.43;6.37;;;;;;;;;;5056937;28;20215;-73
2021/08/14 05:29:22;;;;;;;24.20;6.97;;;;;;;;;;5049670;28;20212;-78
2021/08/14 05:31:48;;;;;;;14.10;7.57;;;;;;;;;;5059805;28;20192;-75
2021/08/14 05:34:15;;;;;;;10.17;6.70;;;;;;;;;;5049001;28;20751;-79
2021/08/14 05:36:42;;;;;;;8.50;6.57;;;;;;;;;;5050601;28;20188;-73
2021/08/14 05:39:09;;;;;;;11.20;6.57;;;;;;;;;;5064594;28;20203;-74
2021/08/14 05:41:40;;;;;;;11.73;7.37;;;;;;;;;;5064437;28;20687;-75
2021/08/14 05:44:07;;;;;;;14.17;11.03;;;;;;;;;;5057005;28;20224;-73
2021/08/14 05:46:34;;;;;;;15.90;8.60;;;;;;;;;;5050434;28;20211;-77
2021/08/14 05:49:01;;;;;;;9.70;6.93;;;;;;;;;;5050491;28;20664;-72
2021/08/14 05:51:27;;;;;;;19.10;16.57;;;;;;;;;;5049997;28;20189;-76
2021/08/14 05:54:13;;;;;;;16.47;13.70;;;;;;;;;;5047465;28;20285;-70
2021/08/14 05:56:40;;;;;;;9.50;8.00;;;;;;;;;;5048802;28;20193;-71
2021/08/14 05:59:07;;;;;;;40.03;35.10;;;;;;;;;;5051153;28;20199;-74
2021/08/14 06:01:34;;;;;;;36.33;32.60;;;;;;;;;;5048489;28;20200;-73
2021/08/14 06:04:01;;;;;;;17.87;12.27;;;;;;;;;;5048483;28;20200;-78
2021/08/14 06:06:27;;;;;;;7.93;6.47;;;;;;;;;;5050401;28;20670;-72
2021/08/14 06:08:54;;;;;;;12.97;7.27;;;;;;;;;;5049866;28;20192;-74
2021/08/14 06:11:21;;;;;;;9.80;6.73;;;;;;;;;;5053998;28;20207;-73
2021/08/14 06:13:48;;;;;;;8.00;6.37;;;;;;;;;;5056342;28;20242;-74
2021/08/14 06:16:15;;;;;;;7.90;6.53;;;;;;;;;;5050369;28;20201;-71
2021/08/14 06:18:42;;;;;;;9.27;6.10;;;;;;;;;;5052953;28;20258;-74
2021/08/14 06:21:10;;;;;;;7.40;5.97;;;;;;;;;;5051527;28;20203;-76
2021/08/14 06:23:37;;;;;;;8.30;6.23;;;;;;;;;;5062086;28;20184;-75
2021/08/14 06:26:04;;;;;;;9.43;7.00;;;;;;;;;;5062056;28;20566;-72
2021/08/14 06:28:31;;;;;;;12.83;6.20;;;;;;;;;;5053377;28;20196;-74
2021/08/14 06:30:58;;;;;;;8.87;6.33;;;;;;;;;;5054870;28;20196;-70
2021/08/14 06:33:25;;;;;;;95.37;78.00;;;;;;;;;;5057396;28;20231;-74
2021/08/14 06:35:52;;;;;;;31.13;27.73;;;;;;;;;;5052317;28;20212;-70
2021/08/14 06:38:19;;;;;;;10.30;7.80;;;;;;;;;;5066724;28;20255;-74
2021/08/14 06:40:46;;;;;;;10.10;7.37;;;;;;;;;;5053392;28;20568;-73
2021/08/14 06:43:12;;;;;;;12.23;6.70;;;;;;;;;;5064850;28;20231;-72
2021/08/14 06:45:39;;;;;;;12.07;7.60;;;;;;;;;;5064806;28;20196;-72
2021/08/14 06:48:06;;;;;;;9.77;6.97;;;;;;;;;;5055398;28;20275;-75
2021/08/14 06:50:33;;;;;;;6.97;6.20;;;;;;;;;;5071100;28;20187;-73
2021/08/14 06:53:00;;;;;;;9.43;7.10;;;;;;;;;;5057121;28;20203;-70
2021/08/14 06:55:27;;;;;;;7.03;6.17;;;;;;;;;;5060546;28;20203;-68
2021/08/14 06:57:54;;;;;;;17.27;15.43;;;;;;;;;;5051553;28;20204;-74
2021/08/14 07:00:20;;;;;;;64.40;57.77;;;;;;;;;;5059901;28;20212;-73
2021/08/14 07:02:47;;;;;;;10.60;7.67;;;;;;;;;;5067179;28;20196;-72
2021/08/14 07:05:15;;;;;;;7.20;6.43;;;;;;;;;;5072059;28;20224;-71
2021/08/14 07:07:41;;;;;;;11.43;6.80;;;;;;;;;;5058246;28;20552;-72
2021/08/14 07:10:09;;;;;;;8.73;5.60;;;;;;;;;;5065269;28;20235;-71
2021/08/14 07:12:35;;;;;;;9.97;6.30;;;;;;;;;;5063557;28;20219;-73
2021/08/14 07:15:02;;;;;;;134.10;120.17;;;;;;;;;;5053405;28;20270;-74
2021/08/14 07:17:29;;;;;;;180.00;159.17;;;;;;;;;;5051383;28;20185;-73
2021/08/14 07:19:56;;;;;;;10.53;7.77;;;;;;;;;;5053006;28;20192;-72
2021/08/14 07:22:23;;;;;;;26.00;22.97;;;;;;;;;;5070793;28;20650;-72
2021/08/14 07:24:50;;;;;;;64.27;57.90;;;;;;;;;;5071336;28;20219;-72
2021/08/14 07:27:16;;;;;;;12.67;9.40;;;;;;;;;;5051596;28;20536;-71
2021/08/14 07:29:43;;;;;;;10.70;6.30;;;;;;;;;;5064162;28;20200;-74
2021/08/14 07:32:11;;;;;;;13.97;6.80;;;;;;;;;;5052483;28;20227;-72
2021/08/14 07:34:38;;;;;;;9.27;7.13;;;;;;;;;;5061904;28;20216;-73
2021/08/14 07:37:05;;;;;;;7.87;6.70;;;;;;;;;;5068169;28;20196;-73
2021/08/14 07:39:31;;;;;;;9.67;6.60;;;;;;;;;;5051476;28;20189;-73
2021/08/14 07:41:59;;;;;;;9.27;6.47;;;;;;;;;;5050736;28;20239;-72
2021/08/14 07:44:26;;;;;;;7.37;5.97;;;;;;;;;;5051064;28;20188;-72
2021/08/14 07:47:12;;;;;;;7.47;6.47;;;;;;;;;;5050537;28;20291;-71
2021/08/14 07:49:39;;;;;;;13.47;6.43;;;;;;;;;;5051072;28;20219;-72
2021/08/14 07:52:07;;;;;;;9.97;6.57;;;;;;;;;;5051282;28;20595;-73
2021/08/14 07:54:33;;;;;;;8.30;6.43;;;;;;;;;;5067207;28;20245;-73
2021/08/14 07:57:00;;;;;;;7.60;5.73;;;;;;;;;;5070766;28;20199;-74
2021/08/14 07:59:27;;;;;;;7.10;6.33;;;;;;;;;;5055105;28;20197;-72
2021/08/14 08:01:54;;;;;;;10.83;5.87;;;;;;;;;;5058557;28;20195;-70
2021/08/14 08:04:20;;;;;;;7.67;5.97;;;;;;;;;;5071573;28;20226;-69
2021/08/14 08:06:47;;;;;;;9.10;6.13;;;;;;;;;;5051421;28;20200;-67
2021/08/14 08:09:14;;;;;;;20.67;16.17;;;;;;;;;;5050351;28;20193;-69
2021/08/14 08:11:41;;;;;;;30.60;26.50;;;;;;;;;;5050838;28;20266;-66
2021/08/14 08:14:08;;;;;;;8.33;6.40;;;;;;;;;;5050213;28;20224;-69
2021/08/14 08:16:34;;;;;;;9.70;6.47;;;;;;;;;;5066870;28;20223;-68
2021/08/14 08:19:01;;;;;;;5.63;5.13;;;;;;;;;;5070185;28;20199;-70
2021/08/14 08:21:28;;;;;;;8.30;5.63;;;;;;;;;;5069271;28;20771;-67
2021/08/14 08:23:55;;;;;;;12.27;6.27;;;;;;;;;;5056999;28;20195;-68
2021/08/14 08:26:22;;;;;;;64.93;58.60;;;;;;;;;;5070389;28;20184;-68
2021/08/14 08:28:48;;;;;;;59.33;48.80;;;;;;;;;;5070035;28;20184;-71
2021/08/14 08:31:15;;;;;;;12.90;9.33;;;;;;;;;;5065718;28;20446;-71
2021/08/14 08:33:42;;;;;;;6.57;5.77;;;;;;;;;;5062498;28;20270;-69
2021/08/14 08:36:09;;;;;;;11.40;6.23;;;;;;;;;;5050056;28;20590;-71
2021/08/14 08:38:36;;;;;;;7.50;6.77;;;;;;;;;;5061084;28;20200;-73
2021/08/14 08:41:03;;;;;;;6.07;5.23;;;;;;;;;;5062226;28;20250;-73
2021/08/14 08:43:32;;;;;;;11.27;6.67;;;;;;;;;;5064008;28;20709;-75
2021/08/14 08:45:59;;;;;;;8.53;5.90;;;;;;;;;;5049869;28;20208;-74
2021/08/14 08:48:27;;;;;;;7.73;5.80;;;;;;;;;;5053404;28;20637;-73
2021/08/14 08:50:54;;;;;;;8.77;6.10;;;;;;;;;;5064503;28;20195;-73
2021/08/14 08:53:21;;;;;;;6.67;6.07;;;;;;;;;;5050177;28;20204;-72
2021/08/14 08:55:47;;;;;;;7.07;6.20;;;;;;;;;;5051774;28;20199;-77
2021/08/14 08:58:15;;;;;;;7.67;6.80;;;;;;;;;;5055444;28;20192;-75
2021/08/14 09:00:42;;;;;;;8.23;6.80;;;;;;;;;;5055713;28;20196;-73
2021/08/14 09:03:10;;;;;;;9.50;6.70;;;;;;;;;;5054924;28;20215;-74
2021/08/14 09:05:47;;;;;;;11.80;8.77;;;;;;;;;;5052869;28;20222;-74
2021/08/14 09:08:14;;;;;;;9.37;8.47;;;;;;;;;;5051328;28;20196;-71
2021/08/14 09:10:41;;;;;;;9.97;8.70;;;;;;;;;;5063030;28;20192;-74
2021/08/14 09:13:09;;;;;;;10.83;8.33;;;;;;;;;;5056675;28;20666;-73
2021/08/14 09:15:36;;;;;;;11.90;8.87;;;;;;;;;;5052860;28;20231;-72
2021/08/14 09:18:03;;;;;;;13.73;8.07;;;;;;;;;;5052653;28;20185;-69
2021/08/14 09:20:31;;;;;;;10.23;8.50;;;;;;;;;;5060331;28;20685;-73
2021/08/14 09:23:00;;;;;;;9.73;7.70;;;;;;;;;;5051672;28;20690;-74
2021/08/14 09:25:37;;;;;;;8.67;7.87;;;;;;;;;;5055741;28;20203;-70
2021/08/14 09:28:04;;;;;;;10.13;7.73;;;;;;;;;;5058546;28;20283;-72
2021/08/14 09:30:49;;;;;;;9.20;8.30;;;;;;;;;;5070070;28;20253;-73
2021/08/14 09:33:21;;;;;;;9.57;8.27;;;;;;;;;;5055477;28;20285;-71
2021/08/14 09:35:52;;;;;;;11.40;9.03;;;;;;;;;;5055604;28;20315;-71
2021/08/14 09:38:19;;;;;;;9.00;8.13;;;;;;;;;;5056020;28;20196;-71
2021/08/14 09:40:47;;;;;;;9.87;8.30;;;;;;;;;;5067703;28;20274;-73
2021/08/14 09:43:14;;;;;;;14.33;7.80;;;;;;;;;;5061671;28;20223;-76
2021/08/14 09:45:56;;;;;;;8.60;7.43;;;;;;;;;;5067581;28;20203;-78
2021/08/14 09:48:23;;;;;;;9.63;8.40;;;;;;;;;;5064734;28;20659;-75
2021/08/14 09:50:51;;;;;;;8.70;7.90;;;;;;;;;;5054098;28;20192;-72
2021/08/14 09:53:19;;;;;;;10.80;8.53;;;;;;;;;;5073641;28;20210;-71
2021/08/14 09:56:06;;;;;;;41.87;37.50;;;;;;;;;;5060041;28;20236;-76
2021/08/14 09:58:33;;;;;;;13.13;11.13;;;;;;;;;;5052700;28;20200;-70
2021/08/14 10:01:00;;;;;;;11.57;9.40;;;;;;;;;;5066138;28;20294;-73
2021/08/14 10:03:28;;;;;;;51.20;46.40;;;;;;;;;;5060019;28;20270;-70
2021/08/14 10:05:55;;;;;;;20.57;18.57;;;;;;;;;;5060041;28;20192;-71
2021/08/14 10:08:22;;;;;;;9.83;8.83;;;;;;;;;;5052115;28;20244;-71
2021/08/14 10:10:49;;;;;;;11.37;8.23;;;;;;;;;;5062370;28;20229;-72
2021/08/14 10:13:18;;;;;;;9.30;8.50;;;;;;;;;;5054343;28;20706;-73
2021/08/14 10:15:45;;;;;;;9.40;8.47;;;;;;;;;;5056794;28;20231;-73
2021/08/14 10:18:14;;;;;;;11.50;9.00;;;;;;;;;;5058623;28;20355;-74
2021/08/14 10:20:41;;;;;;;10.03;9.03;;;;;;;;;;5063109;28;20265;-73
2021/08/14 10:23:10;;;;;;;10.43;9.33;;;;;;;;;;5071806;28;20199;-74
2021/08/14 10:25:38;;;;;;;10.30;8.50;;;;;;;;;;5050690;28;20196;-79
2021/08/14 10:28:06;;;;;;;9.37;8.50;;;;;;;;;;5056001;28;20255;-75
2021/08/14 10:30:50;;;;;;;9.27;8.47;;;;;;;;;;5057134;28;20196;-74
2021/08/14 10:33:31;;;;;;;11.50;8.80;;;;;;;;;;5063505;28;20208;-76
2021/08/14 10:35:58;;;;;;;9.37;8.37;;;;;;;;;;5059860;28;20223;-77
2021/08/14 10:38:38;;;;;;;10.17;8.77;;;;;;;;;;5067819;28;20198;-76
2021/08/14 10:41:05;;;;;;;10.17;9.17;;;;;;;;;;5064175;28;20200;-75
2021/08/14 10:43:50;;;;;;;10.40;9.30;;;;;;;;;;5056774;28;20231;-75
2021/08/14 10:46:37;;;;;;;10.83;8.93;;;;;;;;;;5066013;28;20721;-75
2021/08/14 10:49:05;;;;;;;10.07;8.60;;;;;;;;;;5056340;28;20196;-75
2021/08/14 10:51:47;;;;;;;11.33;8.43;;;;;;;;;;5052136;28;20220;-75
2021/08/14 10:54:14;;;;;;;9.60;8.27;;;;;;;;;;5065900;28;20250;-74
2021/08/14 10:56:52;;;;;;;9.83;8.87;;;;;;;;;;5057553;28;20225;-75
2021/08/14 10:59:40;;;;;;;9.33;8.33;;;;;;;;;;5073019;28;20202;-78
2021/08/14 11:02:09;;;;;;;9.83;8.90;;;;;;;;;;5062617;28;20627;-78
2021/08/14 11:04:36;;;;;;;9.07;8.13;;;;;;;;;;5066472;28;20207;-74
2021/08/14 11:07:33;;;;;;;9.77;8.87;;;;;;;;;;5051866;28;20200;-76
2021/08/14 11:10:00;;;;;;;11.17;8.53;;;;;;;;;;5055029;28;20689;-78
2021/08/14 11:12:30;;;;;;;10.53;9.43;;;;;;;;;;5061411;28;20211;-75
2021/08/14 11:15:26;;;;;;;12.30;8.87;;;;;;;;;;5068354;28;20277;-76
2021/08/14 11:17:52;;;;;;;11.20;8.17;;;;;;;;;;5058005;28;20212;-80
2021/08/14 11:20:19;;;;;;;9.17;7.97;;;;;;;;;;5071805;28;20194;-77
2021/08/14 11:22:47;;;;;;;9.70;7.70;;;;;;;;;;5071608;28;20283;-77
2021/08/14 11:25:27;;;;;;;10.33;8.67;;;;;;;;;;5053328;28;20272;-76
2021/08/14 11:27:55;;;;;;;11.83;7.67;;;;;;;;;;5051575;28;20287;-77
2021/08/14 11:30:25;;;;;;;11.70;8.67;;;;;;;;;;5054951;28;20195;-74
2021/08/14 11:32:53;;;;;;;9.07;8.17;;;;;;;;;;5071798;28;20271;-79
2021/08/14 11:35:22;;;;;;;9.20;8.20;;;;;;;;;;5068687;28;20718;-77
2021/08/14 11:37:58;;;;;;;10.57;8.57;;;;;;;;;;5051505;28;20702;-78
2021/08/14 11:40:32;;;;;;;9.20;8.20;;;;;;;;;;5067392;28;20219;-78
2021/08/14 11:43:04;;;;;;;8.07;7.27;;;;;;;;;;5061533;28;20233;-75
2021/08/14 11:45:31;;;;;;;8.77;7.93;;;;;;;;;;5065179;28;20197;-77
2021/08/14 11:47:59;;;;;;;8.17;7.37;;;;;;;;;;5055803;28;20274;-74
2021/08/14 11:50:34;;;;;;;9.43;7.20;;;;;;;;;;5061031;28;20207;-76
2021/08/14 11:53:02;;;;;;;9.63;7.60;;;;;;;;;;5051685;28;20284;-75
2021/08/14 11:55:30;;;;;;;7.00;6.30;;;;;;;;;;5061739;28;20219;-78
2021/08/14 11:57:57;;;;;;;7.60;6.30;;;;;;;;;;5068244;28;20235;-74
2021/08/14 12:00:28;;;;;;;7.50;6.60;;;;;;;;;;5051167;28;20678;-76
2021/08/14 12:03:05;;;;;;;8.07;5.93;;;;;;;;;;5052909;28;20267;-79
2021/08/14 12:05:33;;;;;;;7.63;5.90;;;;;;;;;;5070887;28;20194;-78
2021/08/14 12:08:00;;;;;;;6.20;5.60;;;;;;;;;;5069159;28;20563;-74
2021/08/14 12:10:28;;;;;;;6.80;5.80;;;;;;;;;;5050935;28;20242;-74
2021/08/14 12:13:01;;;;;;;7.07;6.17;;;;;;;;;;5050822;28;20188;-75
2021/08/14 12:15:34;;;;;;;8.83;5.87;;;;;;;;;;5070519;28;20227;-76
2021/08/14 12:18:02;;;;;;;7.73;6.03;;;;;;;;;;5070598;28;20727;-77
2021/08/14 12:20:31;;;;;;;7.00;6.30;;;;;;;;;;5064278;28;20211;-78
2021/08/14 12:23:18;;;;;;;6.73;5.87;;;;;;;;;;5063817;28;20257;-79
2021/08/14 12:25:59;;;;;;;6.33;5.73;;;;;;;;;;5063282;28;20216;-77
2021/08/14 12:28:30;;;;;;;7.47;5.03;;;;;;;;;;5064081;28;20570;-75
2021/08/14 12:30:57;;;;;;;7.63;5.10;;;;;;;;;;5059121;28;20307;-71
2021/08/14 12:33:27;;;;;;;5.73;5.20;;;;;;;;;;5059657;28;20204;-72
2021/08/14 12:35:55;;;;;;;8.20;5.60;;;;;;;;;;5066331;28;20592;-72
2021/08/14 12:38:22;;;;;;;7.27;5.60;;;;;;;;;;5069677;28;20609;-72
2021/08/14 12:40:49;;;;;;;6.13;5.40;;;;;;;;;;5060207;28;20688;-72
2021/08/14 12:43:19;;;;;;;7.70;5.23;;;;;;;;;;5064934;28;20227;-72
2021/08/14 12:45:45;;;;;;;11.20;9.67;;;;;;;;;;5064546;28;20189;-72
2021/08/14 12:48:12;;;;;;;43.27;39.07;;;;;;;;;;5049300;28;20730;-76
2021/08/14 12:50:39;;;;;;;6.43;5.30;;;;;;;;;;5063248;28;20196;-74
2021/08/14 12:53:11;;;;;;;7.63;5.50;;;;;;;;;;5064933;28;20193;-74
2021/08/14 12:55:38;;;;;;;5.90;5.30;;;;;;;;;;5050054;28;20230;-76
2021/08/14 12:58:09;;;;;;;8.53;5.27;;;;;;;;;;5053164;28;20196;-74
2021/08/14 13:00:37;;;;;;;8.03;5.07;;;;;;;;;;5058705;28;20197;-73
2021/08/14 13:03:04;;;;;;;7.07;5.60;;;;;;;;;;5049317;28;20193;-76
2021/08/14 13:05:31;;;;;;;5.30;4.83;;;;;;;;;;5058993;28;20188;-71
2021/08/14 13:07:59;;;;;;;7.60;5.40;;;;;;;;;;5055610;28;20724;-77
2021/08/14 13:10:26;;;;;;;7.33;5.10;;;;;;;;;;5069552;28;20191;-70
2021/08/14 13:12:54;;;;;;;6.37;5.23;;;;;;;;;;5056378;28;20315;-74
2021/08/14 13:15:26;;;;;;;8.83;5.23;;;;;;;;;;5048930;28;20259;-72
2021/08/14 13:17:53;;;;;;;9.47;5.23;;;;;;;;;;5066913;28;20203;-74
2021/08/14 13:20:21;;;;;;;11.37;5.87;;;;;;;;;;5058878;28;20245;-75
2021/08/14 13:22:49;;;;;;;7.20;5.77;;;;;;;;;;5061201;28;20982;-71
2021/08/14 13:25:19;;;;;;;6.23;5.63;;;;;;;;;;5063502;28;20566;-72
2021/08/14 13:27:46;;;;;;;13.20;11.33;;;;;;;;;;5064245;28;20195;-76
2021/08/14 13:30:14;;;;;;;16.00;7.43;;;;;;;;;;5058197;28;20196;-68
2021/08/14 13:32:42;;;;;;;9.70;6.60;;;;;;;;;;5058096;28;20686;-72
2021/08/14 13:35:09;;;;;;;7.97;5.83;;;;;;;;;;5058989;28;20251;-70
2021/08/14 13:37:37;;;;;;;7.00;5.50;;;;;;;;;;5059702;28;20204;-69
2021/08/14 13:40:04;;;;;;;11.50;5.00;;;;;;;;;;5063069;28;20657;-71
2021/08/14 13:42:32;;;;;;;6.27;4.57;;;;;;;;;;5061033;28;20602;-70
2021/08/14 13:44:59;;;;;;;5.63;4.90;;;;;;;;;;5060235;28;20206;-72
2021/08/14 13:47:29;;;;;;;6.07;5.30;;;;;;;;;;5058703;28;20290;-72
2021/08/14 13:49:56;;;;;;;7.23;5.07;;;;;;;;;;5063252;28;20196;-70
2021/08/14 13:52:22;;;;;;;6.97;4.90;;;;;;;;;;5061873;28;20850;-72
2021/08/14 13:54:49;;;;;;;5.43;4.53;;;;;;;;;;5058490;28;20196;-74
2021/08/14 13:57:16;;;;;;;6.40;4.57;;;;;;;;;;5058947;28;20287;-77
2021/08/14 13:59:43;;;;;;;8.43;4.53;;;;;;;;;;5057869;28;20230;-72
2021/08/14 14:02:11;;;;;;;6.90;4.67;;;;;;;;;;5060262;28;20200;-74
2021/08/14 14:04:38;;;;;;;6.27;5.43;;;;;;;;;;5053993;28;20219;-75
2021/08/14 14:07:05;;;;;;;8.97;5.07;;;;;;;;;;5053900;28;20208;-75
2021/08/14 14:09:32;;;;;;;5.50;4.83;;;;;;;;;;5056093;28;20193;-70
2021/08/14 14:12:00;;;;;;;8.27;4.63;;;;;;;;;;5072230;28;20836;-72
2021/08/14 14:14:26;;;;;;;7.83;4.70;;;;;;;;;;5070461;28;20188;-71
2021/08/14 14:16:54;;;;;;;8.63;4.67;;;;;;;;;;5053197;28;20232;-73
2021/08/14 14:19:20;;;;;;;10.03;4.60;;;;;;;;;;5052242;28;20196;-73
2021/08/14 14:21:47;;;;;;;6.77;5.03;;;;;;;;;;5054107;28;20192;-72
2021/08/14 14:24:14;;;;;;;4.93;4.43;;;;;;;;;;5054623;28;20548;-71
2021/08/14 14:26:41;;;;;;;4.77;4.30;;;;;;;;;;5060440;28;20216;-75
2021/08/14 14:29:07;;;;;;;5.77;4.70;;;;;;;;;;5058140;28;20184;-71
2021/08/14 14:31:34;;;;;;;7.77;4.80;;;;;;;;;;5056613;28;20220;-72
2021/08/14 14:34:01;;;;;;;7.63;5.10;;;;;;;;;;5068077;28;20378;-72
2021/08/14 14:36:31;;;;;;;5.97;4.60;;;;;;;;;;5056849;28;20717;-71
2021/08/14 14:38:58;;;;;;;8.00;4.33;;;;;;;;;;5070176;28;20199;-71
2021/08/14 14:41:24;;;;;;;5.60;4.57;;;;;;;;;;5069625;28;20200;-68
2021/08/14 14:43:51;;;;;;;6.03;3.80;;;;;;;;;;5054181;28;20252;-67